Time;durP1;ratioP1;P1;durP2;ratioP2;P2;SDS_P1;SDS_P2;PMS_P1;PMS_P2;Temp;Humidity;BMP_temperature;BMP_pressure;BME280_temperature;BME280_humidity;BME280_pressure;Samples;Min_cycle;Max_cycle;Signal;HPM_P1;HPM_P2
2023/03/06 00:02:25;;;;;;;3.00;1.90;;;;;;;-4.99;100.00;97794.34;5158419;27;20478;-63
2023/03/06 00:04:52;;;;;;;6.60;2.03;;;;;;;-4.83;100.00;97813.56;5158560;27;20054;-66
2023/03/06 00:07:19;;;;;;;4.22;2.38;;;;;;;-4.87;100.00;97804.53;5158293;27;20050;-65
2023/03/06 00:09:45;;;;;;;7.47;2.60;;;;;;;-4.77;100.00;97800.88;5158586;27;20046;-63
2023/03/06 00:12:11;;;;;;;4.13;2.08;;;;;;;-5.01;100.00;97811.75;5158204;27;20091;-65
2023/03/06 00:14:37;;;;;;;4.43;1.60;;;;;;;-4.89;100.00;97844.16;5158029;27;20057;-64
2023/03/06 00:17:04;;;;;;;3.75;1.98;;;;;;;-4.88;100.00;97831.56;5158253;27;20069;-64
2023/03/06 00:19:30;;;;;;;1.40;1.30;;;;;;;-4.75;100.00;97836.91;5158312;27;20054;-64
2023/03/06 00:21:56;;;;;;;6.90;2.15;;;;;;;-4.75;100.00;97820.88;5158150;27;20133;-64
2023/03/06 00:24:23;;;;;;;13.95;2.22;;;;;;;-4.77;100.00;97815.03;5157497;27;20047;-63
2023/03/06 00:26:49;;;;;;;7.07;1.90;;;;;;;-4.55;100.00;97816.22;5158404;27;20054;-63
2023/03/06 00:29:15;;;;;;;3.53;1.85;;;;;;;-4.50;100.00;97813.41;5157926;27;20053;-66
2023/03/06 00:31:45;;;;;;;4.90;2.15;;;;;;;-4.45;100.00;97799.94;5158415;27;20336;-63
2023/03/06 00:34:11;;;;;;;5.43;1.80;;;;;;;-4.48;100.00;97795.19;5157818;27;20091;-63
2023/03/06 00:36:37;;;;;;;5.15;1.90;;;;;;;-4.54;100.00;97788.38;5158165;27;20050;-64
2023/03/06 00:39:04;;;;;;;6.70;2.25;;;;;;;-4.61;100.00;97780.75;5157832;27;20070;-64
2023/03/06 00:41:31;;;;;;;2.63;1.50;;;;;;;-4.62;100.00;97795.22;5158212;27;20090;-63
2023/03/06 00:43:57;;;;;;;2.42;1.35;;;;;;;-4.63;100.00;97792.81;5157895;27;20137;-64
2023/03/06 00:46:23;;;;;;;4.80;1.67;;;;;;;-4.56;100.00;97783.34;5157693;27;20422;-64
2023/03/06 00:48:49;;;;;;;4.45;2.17;;;;;;;-4.71;100.00;97764.13;5157779;27;20061;-62
2023/03/06 00:51:18;;;;;;;7.03;2.72;;;;;;;-4.72;100.00;97784.72;5157823;27;20092;-65
2023/03/06 00:53:44;;;;;;;4.03;1.60;;;;;;;-4.67;100.00;97792.63;5157986;27;20141;-65
2023/03/06 00:56:10;;;;;;;5.50;1.50;;;;;;;-4.63;100.00;97784.81;5157719;27;20408;-63
2023/03/06 00:58:37;;;;;;;2.80;1.73;;;;;;;-4.66;100.00;97774.72;5157860;27;20396;-64
2023/03/06 01:01:04;;;;;;;4.07;1.92;;;;;;;-4.76;100.00;97786.44;5157773;27;20054;-65
2023/03/06 01:03:30;;;;;;;6.18;2.17;;;;;;;-4.84;100.00;97779.88;5157867;27;20053;-64
2023/03/06 01:05:56;;;;;;;7.43;2.03;;;;;;;-4.70;100.00;97819.19;5157410;27;20073;-63
2023/03/06 01:08:43;;;;;;;5.40;1.92;;;;;;;-4.56;100.00;97828.81;5158193;27;20172;-63
2023/03/06 01:11:09;;;;;;;2.83;1.70;;;;;;;-4.70;100.00;97806.59;5157688;27;20379;-65
2023/03/06 01:13:35;;;;;;;3.78;1.58;;;;;;;-4.61;100.00;97809.38;5157322;27;20057;-62
2023/03/06 01:16:08;;;;;;;7.45;2.00;;;;;;;-4.63;100.00;97812.38;5157333;27;20060;-65
2023/03/06 01:18:34;;;;;;;3.75;2.05;;;;;;;-4.66;100.00;97791.56;5157515;27;20050;-61
2023/03/06 01:21:00;;;;;;;5.43;2.00;;;;;;;-4.71;100.00;97764.91;5157692;27;20050;-63
2023/03/06 01:23:27;;;;;;;2.63;2.10;;;;;;;-4.36;100.00;97794.69;5157365;27;20171;-63
2023/03/06 01:25:53;;;;;;;3.33;2.03;;;;;;;-4.36;100.00;97771.41;5157550;27;20415;-64
2023/03/06 01:28:19;;;;;;;1.90;1.65;;;;;;;-4.24;100.00;97784.25;5157158;27;20047;-62
2023/03/06 01:30:45;;;;;;;7.38;2.25;;;;;;;-4.37;100.00;97751.06;5157661;27;20057;-64
2023/03/06 01:33:12;;;;;;;5.43;1.83;;;;;;;-4.06;100.00;97742.38;5157161;27;20047;-62
2023/03/06 01:35:39;;;;;;;3.65;1.85;;;;;;;-4.13;100.00;97718.69;5157442;27;20170;-66
2023/03/06 01:38:05;;;;;;;7.15;2.65;;;;;;;-3.87;100.00;97704.69;5160677;27;20058;-64
2023/03/06 01:40:32;;;;;;;2.67;2.00;;;;;;;-3.81;100.00;97685.50;5160598;27;20069;-62
2023/03/06 01:42:59;;;;;;;4.40;2.58;;;;;;;-3.58;100.00;97653.31;5160855;27;20057;-65
2023/03/06 01:46:02;;;;;;;3.60;2.10;;;;;;;-3.55;100.00;97593.78;5160779;27;20057;-64
2023/03/06 01:48:29;;;;;;;2.50;1.88;;;;;;;-3.50;100.00;97542.72;5160789;27;20400;-66
2023/03/06 01:50:55;;;;;;;9.52;2.15;;;;;;;-3.40;100.00;97514.84;5160395;27;20054;-62
2023/03/06 01:53:22;;;;;;;4.00;1.65;;;;;;;-3.32;100.00;97474.66;5160839;27;20059;-66
2023/03/06 01:55:48;;;;;;;6.25;2.45;;;;;;;-3.42;100.00;97421.38;5160255;27;20047;-62
2023/03/06 01:58:17;;;;;;;3.00;1.67;;;;;;;-3.35;100.00;97408.31;5160799;27;20106;-65
2023/03/06 02:00:43;;;;;;;4.78;2.00;;;;;;;-3.42;100.00;97409.88;5160331;27;20054;-65
2023/03/06 02:03:13;;;;;;;5.70;2.00;;;;;;;-3.29;100.00;97403.56;5160533;27;20149;-62
2023/03/06 02:05:41;;;;;;;5.70;2.22;;;;;;;-3.48;100.00;97347.63;5160523;27;20054;-65
2023/03/06 02:08:09;;;;;;;5.22;2.47;;;;;;;-3.55;100.00;97364.19;5160102;27;20047;-64
2023/03/06 02:10:36;;;;;;;6.75;2.70;;;;;;;-3.28;100.00;97335.47;5160630;27;20050;-66
2023/03/06 02:13:03;;;;;;;3.95;2.17;;;;;;;-3.22;100.00;97290.53;5159586;27;20046;-64
2023/03/06 02:15:30;;;;;;;4.18;2.28;;;;;;;-3.15;100.00;97242.56;5160334;27;20468;-64
2023/03/06 02:17:56;;;;;;;3.60;2.03;;;;;;;-3.19;100.00;97190.72;5160263;27;20312;-62
2023/03/06 02:20:28;;;;;;;4.10;1.77;;;;;;;-2.96;100.00;97173.25;5160515;27;20404;-66
2023/03/06 02:23:01;;;;;;;4.05;2.03;;;;;;;-2.98;100.00;97118.38;5159811;27;20051;-63
2023/03/06 02:25:34;;;;;;;8.80;2.35;;;;;;;-3.18;100.00;97117.25;5159837;27;20142;-65
2023/03/06 02:28:01;;;;;;;2.47;1.85;;;;;;;-3.13;100.00;97101.00;5159966;27;20047;-62
2023/03/06 02:30:28;;;;;;;2.85;1.80;;;;;;;-3.15;100.00;97085.22;5159946;27;20340;-62
2023/03/06 02:32:55;;;;;;;6.05;2.30;;;;;;;-2.96;100.00;97100.09;5160135;27;20289;-63
2023/03/06 02:35:24;;;;;;;9.20;2.75;;;;;;;-2.93;100.00;97104.78;5159525;27;20050;-64
2023/03/06 02:37:51;;;;;;;5.78;2.00;;;;;;;-2.94;100.00;97098.63;5160013;27;20434;-63
2023/03/06 02:40:20;;;;;;;2.72;2.17;;;;;;;-3.09;100.00;97069.75;5159701;27;20047;-62
2023/03/06 02:42:48;;;;;;;6.13;2.38;;;;;;;-3.38;100.00;97036.50;5159553;27;20066;-65
2023/03/06 02:45:20;;;;;;;9.95;3.03;;;;;;;-3.31;100.00;97068.16;5159463;27;20050;-63
2023/03/06 02:47:46;;;;;;;7.00;2.25;;;;;;;-3.40;100.00;97080.81;5159196;27;20054;-65
2023/03/06 02:50:13;;;;;;;6.40;2.08;;;;;;;-3.45;100.00;97056.91;5159575;27;20061;-64
2023/03/06 02:52:39;;;;;;;11.73;2.47;;;;;;;-3.87;100.00;97064.81;5159662;27;20061;-65
2023/03/06 02:55:06;;;;;;;5.70;2.65;;;;;;;-3.67;100.00;97154.34;5159703;27;20328;-63
2023/03/06 02:57:33;;;;;;;5.75;2.15;;;;;;;-3.64;100.00;97202.72;5162107;27;20192;-64
2023/03/06 02:59:59;;;;;;;2.75;2.15;;;;;;;-3.56;100.00;97199.22;5161763;27;20051;-65
2023/03/06 03:02:26;;;;;;;7.82;2.72;;;;;;;-3.87;100.00;97159.31;5159757;27;20335;-62
2023/03/06 03:04:52;;;;;;;4.78;2.67;;;;;;;-3.91;100.00;97203.88;5159478;27;20453;-65
2023/03/06 03:07:18;;;;;;;7.57;3.45;;;;;;;-3.86;100.00;97285.94;5159125;27;20055;-62
2023/03/06 03:09:44;;;;;;;19.65;3.72;;;;;;;-4.02;100.00;97321.19;5159600;27;20102;-66
2023/03/06 03:12:11;;;;;;;5.53;2.55;;;;;;;-4.02;100.00;97376.63;5159097;27;20059;-62
2023/03/06 03:14:37;;;;;;;4.72;2.20;;;;;;;-3.96;100.00;97417.44;5159629;27;20042;-65
2023/03/06 03:17:04;;;;;;;6.78;3.50;;;;;;;-3.79;100.00;97441.53;5158846;27;20110;-63
2023/03/06 03:19:30;;;;;;;8.35;3.03;;;;;;;-3.74;100.00;97438.69;5159228;27;20122;-66
2023/03/06 03:21:56;;;;;;;5.35;2.67;;;;;;;-3.57;100.00;97430.66;5159056;27;20046;-63
2023/03/06 03:24:23;;;;;;;4.13;2.55;;;;;;;-3.49;100.00;97402.34;5159118;27;20069;-66
2023/03/06 03:26:49;;;;;;;2.95;2.45;;;;;;;-3.73;100.00;97372.53;5159308;27;20073;-62
2023/03/06 03:29:15;;;;;;;5.65;3.15;;;;;;;-3.38;100.00;97374.09;5158867;27;20366;-65
2023/03/06 03:31:41;;;;;;;12.00;3.22;;;;;;;-3.50;100.00;97311.56;5159229;27;20073;-62
2023/03/06 03:34:11;;;;;;;8.30;3.90;;;;;;;-3.89;100.00;97298.06;5158826;27;20047;-65
2023/03/06 03:36:38;;;;;;;5.95;3.08;;;;;;;-3.87;100.00;97325.28;5159206;27;20323;-64
2023/03/06 03:39:05;;;;;;;8.15;3.10;;;;;;;-3.90;100.00;97362.59;5158670;27;20050;-64
2023/03/06 03:41:32;;;;;;;6.35;3.35;;;;;;;-3.92;100.00;97408.44;5159192;27;20072;-64
2023/03/06 03:43:58;;;;;;;8.15;3.58;;;;;;;-3.95;100.00;97422.47;5158570;27;20042;-64
2023/03/06 03:46:24;;;;;;;15.88;3.80;;;;;;;-3.88;100.00;97462.16;5158519;27;20065;-63
2023/03/06 03:48:51;;;;;;;5.75;3.50;;;;;;;-3.78;100.00;97485.94;5158842;27;20050;-65
2023/03/06 03:51:18;;;;;;;8.30;4.28;;;;;;;-3.48;100.00;97518.31;5158455;27;20060;-62
2023/03/06 03:53:44;;;;;;;10.60;3.72;;;;;;;-3.38;100.00;97475.13;5158594;27;20426;-66
2023/03/06 03:56:12;;;;;;;8.32;3.60;;;;;;;-3.64;100.00;97414.28;5158445;27;20079;-65
2023/03/06 03:58:39;;;;;;;5.40;3.80;;;;;;;-3.40;100.00;97419.19;5158103;27;20047;-64
2023/03/06 04:01:05;;;;;;;5.30;3.13;;;;;;;-3.18;100.00;97387.94;5158105;27;20443;-64
2023/03/06 04:03:31;;;;;;;19.50;3.83;;;;;;;-3.20;100.00;97337.34;5158766;27;20324;-66
2023/03/06 04:05:58;;;;;;;7.43;3.63;;;;;;;-3.33;100.00;97312.31;5158180;27;20058;-64
2023/03/06 04:08:26;;;;;;;14.70;5.40;;;;;;;-3.38;100.00;97315.16;5158173;27;20058;-61
2023/03/06 04:10:53;;;;;;;11.68;4.35;;;;;;;-3.41;100.00;97352.50;5158156;27;20057;-66
2023/03/06 04:13:20;;;;;;;9.30;3.95;;;;;;;-3.51;100.00;97363.56;5158159;27;20051;-63
2023/03/06 04:15:48;;;;;;;8.48;4.05;;;;;;;-3.09;100.00;97391.41;5158325;27;20054;-63
2023/03/06 04:18:15;;;;;;;5.50;3.97;;;;;;;-3.45;100.00;97314.84;5158174;27;20047;-62
2023/03/06 04:20:41;;;;;;;10.02;4.35;;;;;;;-3.23;100.00;97345.22;5158417;27;20046;-65
2023/03/06 04:23:08;;;;;;;7.53;4.22;;;;;;;-3.10;100.00;97347.72;5158174;27;20411;-66
2023/03/06 04:25:34;;;;;;;7.47;4.15;;;;;;;-3.04;100.00;97318.06;5158332;27;20111;-62
2023/03/06 04:28:01;;;;;;;9.13;4.28;;;;;;;-2.78;100.00;97297.28;5157948;27;20042;-64
2023/03/06 04:30:27;;;;;;;14.50;5.05;;;;;;;-2.73;100.00;97237.31;5158395;27;20420;-63
2023/03/06 04:32:53;;;;;;;10.90;4.32;;;;;;;-2.76;100.00;97224.56;5157936;27;20050;-65
2023/03/06 04:35:19;;;;;;;7.60;4.60;;;;;;;-2.80;100.00;97208.31;5158262;27;20057;-65
2023/03/06 04:37:46;;;;;;;14.95;4.80;;;;;;;-2.63;100.00;97199.41;5157664;27;20141;-65
2023/03/06 04:40:16;;;;;;;10.10;4.72;;;;;;;-2.65;100.00;97174.78;5158136;27;20054;-63
2023/03/06 04:42:43;;;;;;;6.82;4.63;;;;;;;-2.85;100.00;97179.03;5158057;27;20054;-63
2023/03/06 04:45:10;;;;;;;9.05;3.95;;;;;;;-2.73;100.00;97238.13;5157943;27;20076;-63
2023/03/06 04:47:37;;;;;;;11.00;4.80;;;;;;;-3.00;100.00;97227.84;5158094;27;20383;-66
2023/03/06 04:50:03;;;;;;;7.07;4.35;;;;;;;-2.96;100.00;97244.88;5157861;27;20106;-63
2023/03/06 04:52:30;;;;;;;10.02;4.55;;;;;;;-2.87;100.00;97254.41;5157903;27;20050;-66
2023/03/06 04:54:56;;;;;;;8.00;4.88;;;;;;;-2.64;100.00;97275.59;5157511;27;20053;-62
2023/03/06 04:57:22;;;;;;;8.55;4.57;;;;;;;-2.95;100.00;97251.78;5157730;27;20498;-66
2023/03/06 04:59:50;;;;;;;10.48;5.28;;;;;;;-2.71;100.00;97264.59;5157460;27;20057;-63
2023/03/06 05:02:16;;;;;;;5.38;3.40;;;;;;;-2.58;100.00;97255.53;5157857;27;20412;-62
2023/03/06 05:04:42;;;;;;;10.30;4.55;;;;;;;-2.85;100.00;97213.88;5157241;27;20053;-66
2023/03/06 05:07:09;;;;;;;11.00;4.97;;;;;;;-2.52;100.00;97245.41;5157301;27;20107;-62
2023/03/06 05:09:35;;;;;;;10.10;4.50;;;;;;;-2.27;100.00;97230.19;5157374;27;20050;-65
2023/03/06 05:12:02;;;;;;;9.43;5.00;;;;;;;-2.51;100.00;97169.16;5160590;27;20053;-64
2023/03/06 05:15:39;;;;;;;8.02;5.32;;;;;;;-2.29;100.00;97160.75;5217920;27;20416;-67
2023/03/06 05:18:05;;;;;;;10.68;5.40;;;;;;;-2.74;100.00;97161.41;5196473;27;20052;-65
2023/03/06 05:20:32;;;;;;;13.23;4.47;;;;;;;-2.42;100.00;97205.53;5196469;27;20050;-68
2023/03/06 05:22:58;;;;;;;8.13;5.00;;;;;;;-2.32;100.00;97212.41;5196159;27;20104;-68
2023/03/06 05:25:25;;;;;;;9.82;5.50;;;;;;;-2.30;100.00;97212.88;5196061;27;20072;-63
2023/03/06 05:27:51;;;;;;;10.77;4.97;;;;;;;-2.14;100.00;97218.41;5196342;27;20045;-67
2023/03/06 05:30:20;;;;;;;6.20;4.13;;;;;;;-2.07;100.00;97174.91;5196066;27;20098;-61
2023/03/06 05:32:46;;;;;;;10.20;4.45;;;;;;;-2.14;100.00;97157.44;5196420;27;20089;-63
2023/03/06 05:35:17;;;;;;;10.95;4.95;;;;;;;-1.99;100.00;97150.69;5183309;27;20050;-63
2023/03/06 05:37:44;;;;;;;6.10;3.78;;;;;;;-1.94;100.00;97144.31;5175440;27;20406;-65
2023/03/06 05:40:11;;;;;;;14.18;4.05;;;;;;;-2.03;100.00;97127.50;5175033;27;20092;-64
2023/03/06 05:42:37;;;;;;;13.68;5.05;;;;;;;-1.97;100.00;97126.16;5175539;27;20400;-64
2023/03/06 05:45:04;;;;;;;11.57;4.07;;;;;;;-1.95;100.00;97124.72;5174588;27;20133;-65
2023/03/06 05:47:31;;;;;;;8.43;4.18;;;;;;;-1.78;100.00;97112.22;5174828;27;20050;-61
2023/03/06 05:49:58;;;;;;;11.63;4.55;;;;;;;-1.82;100.00;97084.47;5174638;27;20054;-59
2023/03/06 05:52:24;;;;;;;10.48;4.38;;;;;;;-1.67;100.00;97073.03;5174480;27;20137;-62
2023/03/06 05:54:52;;;;;;;10.77;4.60;;;;;;;-2.15;100.00;97037.00;5174958;27;20054;-59
2023/03/06 05:57:19;;;;;;;13.55;5.25;;;;;;;-1.85;100.00;97080.53;5174793;27;20348;-62
2023/03/06 05:59:45;;;;;;;7.60;4.40;;;;;;;-1.76;100.00;97102.72;5174825;27;20412;-63
2023/03/06 06:02:12;;;;;;;12.45;5.22;;;;;;;-1.72;100.00;97092.88;5174724;27;20050;-63
2023/03/06 06:04:38;;;;;;;11.35;5.15;;;;;;;-1.59;100.00;97074.06;5175075;27;20054;-62
2023/03/06 06:07:05;;;;;;;14.57;6.05;;;;;;;-1.57;100.00;97074.50;5174517;27;20376;-62
2023/03/06 06:09:31;;;;;;;7.88;4.63;;;;;;;-1.55;100.00;97069.59;5174571;27;20047;-62
2023/03/06 06:12:00;;;;;;;11.10;5.32;;;;;;;-1.41;100.00;97053.91;5174243;27;20098;-63
2023/03/06 06:14:27;;;;;;;8.18;4.78;;;;;;;-1.21;100.00;97034.16;5174058;27;20042;-61
2023/03/06 06:16:53;;;;;;;12.82;6.10;;;;;;;-1.21;100.00;97003.78;5173983;27;20423;-60
2023/03/06 06:19:20;;;;;;;12.77;5.13;;;;;;;-1.35;100.00;96982.66;5174159;27;20133;-63
2023/03/06 06:21:48;;;;;;;11.90;5.40;;;;;;;-1.21;100.00;96956.19;5174239;27;20051;-61
2023/03/06 06:24:16;;;;;;;9.00;4.57;;;;;;;-1.03;100.00;96929.78;5174369;27;20141;-62
2023/03/06 06:26:42;;;;;;;16.58;5.32;;;;;;;-1.71;100.00;96887.56;5161875;27;20053;-62
2023/03/06 06:29:09;;;;;;;11.25;4.60;;;;;;;-1.22;100.00;96916.97;5160158;27;20148;-60
2023/03/06 06:31:36;;;;;;;12.70;5.10;;;;;;;-1.07;100.00;96887.78;5160459;27;20083;-63
2023/03/06 06:34:02;;;;;;;8.77;3.65;;;;;;;-1.05;100.00;96875.56;5159895;27;20054;-61
2023/03/06 06:36:28;;;;;;;12.32;4.70;;;;;;;-1.22;100.00;96875.88;5160412;27;20054;-60
2023/03/06 06:38:55;;;;;;;8.60;5.25;;;;;;;-0.99;100.00;96889.56;5160015;27;20103;-62
2023/03/06 06:41:22;;;;;;;8.07;4.55;;;;;;;-0.74;100.00;96855.97;5159887;27;20118;-61
2023/03/06 06:43:48;;;;;;;9.40;4.35;;;;;;;-0.84;100.00;96834.19;5159949;27;20065;-64
2023/03/06 06:46:14;;;;;;;7.35;3.80;;;;;;;-0.57;100.00;96806.41;5160228;27;20054;-60
2023/03/06 06:48:40;;;;;;;7.30;4.40;;;;;;;-0.72;100.00;96777.63;5159952;27;20392;-63
2023/03/06 06:51:07;;;;;;;9.73;4.80;;;;;;;-0.43;100.00;96776.34;5160078;27;20190;-61
2023/03/06 06:53:33;;;;;;;8.85;4.57;;;;;;;-0.15;100.00;96764.63;5159861;27;20046;-62
2023/03/06 06:56:00;;;;;;;10.43;4.57;;;;;;;0.01;100.00;96749.19;5159941;27;20339;-62
2023/03/06 06:58:27;;;;;;;7.25;4.35;;;;;;;-0.02;100.00;96752.59;5160172;27;20042;-63
2023/03/06 07:00:53;;;;;;;8.70;3.75;;;;;;;0.06;100.00;96751.59;5159765;27;20053;-63
2023/03/06 07:03:19;;;;;;;6.35;3.90;;;;;;;0.14;100.00;96763.31;5160028;27;20054;-64
2023/03/06 07:05:53;;;;;;;10.57;3.80;;;;;;;0.15;100.00;96764.88;5159475;27;20339;-61
2023/03/06 07:08:19;;;;;;;7.25;3.20;;;;;;;0.49;100.00;96762.41;5159916;27;20133;-61
2023/03/06 07:10:46;;;;;;;5.65;3.65;;;;;;;0.60;100.00;96787.66;5159655;27;20114;-64
2023/03/06 07:13:12;;;;;;;6.28;3.30;;;;;;;0.33;100.00;96802.94;5159565;27;20139;-61
2023/03/06 07:15:39;;;;;;;8.85;4.43;;;;;;;0.56;100.00;96808.38;5159352;27;20058;-62
2023/03/06 07:18:05;;;;;;;8.80;3.30;;;;;;;0.92;100.00;96815.22;5159254;27;20137;-63
2023/03/06 07:20:31;;;;;;;10.65;3.65;;;;;;;0.84;100.00;96854.00;5159471;27;20053;-61
2023/03/06 07:22:58;;;;;;;8.25;3.70;;;;;;;1.71;100.00;96868.56;5159257;27;20061;-62
2023/03/06 07:25:24;;;;;;;8.77;4.00;;;;;;;1.59;100.00;96920.06;5159456;27;20401;-62
2023/03/06 07:27:51;;;;;;;8.45;3.85;;;;;;;2.59;100.00;96962.13;5159093;27;20046;-61
2023/03/06 07:30:17;;;;;;;7.00;3.80;;;;;;;2.57;100.00;97032.84;5159494;27;20376;-66
2023/03/06 07:32:44;;;;;;;7.57;3.50;;;;;;;3.90;100.00;97111.13;5158967;27;20056;-62
2023/03/06 07:35:14;;;;;;;3.53;2.70;;;;;;;4.43;100.00;97191.47;5159485;27;20050;-65
2023/03/06 07:37:41;;;;;;;8.20;3.60;;;;;;;4.42;100.00;97242.25;5158099;27;20047;-64
2023/03/06 07:40:09;;;;;;;7.50;4.00;;;;;;;3.86;100.00;97275.66;5159229;27;20051;-63
2023/03/06 07:42:36;;;;;;;7.95;3.05;;;;;;;3.30;100.00;97252.78;5158939;27;20051;-64
2023/03/06 07:45:04;;;;;;;8.23;3.45;;;;;;;3.37;100.00;97243.22;5158952;27;20047;-64
2023/03/06 07:47:30;;;;;;;6.40;3.70;;;;;;;3.41;100.00;97241.34;5158974;27;20065;-57
2023/03/06 07:49:58;;;;;;;7.65;3.70;;;;;;;4.47;100.00;97255.50;5158775;27;20047;-67
2023/03/06 07:52:25;;;;;;;9.20;3.53;;;;;;;4.82;100.00;97295.03;5159187;27;20062;-57
2023/03/06 07:54:51;;;;;;;5.95;3.60;;;;;;;5.10;100.00;97320.91;5158645;27;20137;-66
2023/03/06 07:57:17;;;;;;;7.47;4.20;;;;;;;5.94;100.00;97324.72;5159187;27;20046;-58
2023/03/06 07:59:43;;;;;;;7.60;3.90;;;;;;;6.32;100.00;97347.09;5158882;27;20051;-65
2023/03/06 08:02:10;;;;;;;7.35;3.55;;;;;;;6.92;100.00;97357.47;5159289;27;20046;-58
2023/03/06 08:04:37;;;;;;;4.63;3.33;;;;;;;6.99;100.00;97370.31;5158632;27;20350;-68
2023/03/06 08:07:04;;;;;;;5.88;3.92;;;;;;;7.05;100.00;97376.97;5158395;27;20054;-60
2023/03/06 08:09:30;;;;;;;7.05;4.35;;;;;;;7.21;100.00;97382.06;5158440;27;20086;-62
2023/03/06 08:11:56;;;;;;;4.55;3.67;;;;;;;6.51;100.00;97386.88;5158657;27;20047;-64
2023/03/06 08:14:22;;;;;;;9.48;5.30;;;;;;;6.23;100.00;97377.38;5158533;27;20080;-64
2023/03/06 08:16:50;;;;;;;7.60;4.95;;;;;;;6.78;96.98;97384.66;5158309;27;20047;-60
2023/03/06 08:19:16;;;;;;;10.80;4.65;;;;;;;7.32;93.93;97388.31;5158309;27;20054;-66
2023/03/06 08:21:42;;;;;;;8.35;4.43;;;;;;;6.27;99.99;97386.34;5158350;27;20099;-62
2023/03/06 08:24:09;;;;;;;5.50;4.32;;;;;;;7.11;97.74;97389.06;5158343;27;20126;-63
2023/03/06 08:26:35;;;;;;;9.13;3.80;;;;;;;6.39;100.00;97385.22;5158238;27;20047;-66
2023/03/06 08:29:02;;;;;;;9.52;3.88;;;;;;;7.06;98.00;97384.78;5157937;27;20061;-65
2023/03/06 08:31:31;;;;;;;6.72;3.85;;;;;;;6.98;95.17;97391.34;5158100;27;20046;-62
2023/03/06 08:33:59;;;;;;;9.77;4.22;;;;;;;5.38;100.00;97377.44;5158172;27;20047;-61
2023/03/06 08:36:25;;;;;;;10.27;4.88;;;;;;;4.68;100.00;97360.81;5158439;27;20065;-61
2023/03/06 08:38:52;;;;;;;5.97;4.10;;;;;;;4.75;100.00;97351.19;5158055;27;20046;-66
2023/03/06 08:41:19;;;;;;;8.52;4.40;;;;;;;4.70;100.00;97352.31;5158179;27;20057;-65
2023/03/06 08:43:45;;;;;;;8.38;4.50;;;;;;;4.77;100.00;97340.75;5157895;27;20060;-65
2023/03/06 08:46:12;;;;;;;8.65;4.40;;;;;;;4.20;100.00;97340.81;5158227;27;20371;-67
2023/03/06 08:48:38;;;;;;;5.95;3.92;;;;;;;4.01;100.00;97301.81;5157795;27;20064;-68
2023/03/06 08:51:05;;;;;;;8.48;4.60;;;;;;;3.17;100.00;97297.47;5158323;27;20047;-63
2023/03/06 08:53:31;;;;;;;9.57;4.10;;;;;;;3.67;100.00;97306.38;5157873;27;20050;-63
2023/03/06 08:55:58;;;;;;;7.43;3.58;;;;;;;3.78;100.00;97296.47;5158391;27;20133;-63
2023/03/06 08:58:25;;;;;;;10.50;4.10;;;;;;;4.86;100.00;97284.97;5157916;27;20050;-63
2023/03/06 09:00:51;;;;;;;11.40;3.38;;;;;;;4.66;100.00;97313.47;5158416;27;20043;-64
2023/03/06 09:03:17;;;;;;;5.82;3.33;;;;;;;5.22;100.00;97336.94;5157771;27;20042;-63
2023/03/06 09:05:44;;;;;;;9.98;3.40;;;;;;;5.94;100.00;97351.94;5157997;27;20046;-69
2023/03/06 09:08:10;;;;;;;5.88;3.90;;;;;;;5.72;100.00;97363.75;5158228;27;20319;-67
2023/03/06 09:10:36;;;;;;;7.20;4.07;;;;;;;5.93;100.00;97374.84;5158008;27;20052;-62
2023/03/06 09:13:03;;;;;;;6.45;3.47;;;;;;;5.21;100.00;97364.47;5157754;27;20047;-67
2023/03/06 09:15:29;;;;;;;4.43;2.88;;;;;;;5.64;100.00;97365.66;5157638;27;20051;-63
2023/03/06 09:17:56;;;;;;;13.77;3.17;;;;;;;4.34;100.00;97351.06;5157992;27;20065;-67
2023/03/06 09:20:22;;;;;;;8.63;3.30;;;;;;;4.54;100.00;97335.44;5157830;27;20061;-66
2023/03/06 09:22:48;;;;;;;4.53;2.47;;;;;;;4.93;100.00;97361.09;5158052;27;20086;-68
2023/03/06 09:25:19;;;;;;;12.98;3.35;;;;;;;4.89;100.00;97362.19;5157436;27;20050;-65
2023/03/06 09:27:46;;;;;;;5.18;2.70;;;;;;;4.49;100.00;97363.66;5157948;27;20138;-69
2023/03/06 09:30:13;;;;;;;8.00;3.20;;;;;;;4.13;100.00;97349.63;5157360;27;20050;-63
2023/03/06 09:32:40;;;;;;;4.93;2.33;;;;;;;3.58;100.00;97345.72;5157723;27;20047;-65
2023/03/06 09:35:07;;;;;;;9.48;2.47;;;;;;;4.17;100.00;97315.22;5157581;27;20366;-63
2023/03/06 09:37:33;;;;;;;9.18;3.30;;;;;;;3.99;100.00;97323.09;5157648;27;20054;-64
2023/03/06 09:39:59;;;;;;;8.23;2.33;;;;;;;3.33;100.00;97340.63;5157647;27;20047;-58
2023/03/06 09:42:27;;;;;;;4.38;2.42;;;;;;;3.03;100.00;97345.91;5157220;27;20082;-60
2023/03/06 09:44:56;;;;;;;5.53;2.17;;;;;;;2.83;100.00;97321.63;5157500;27;20051;-63
2023/03/06 09:47:51;;;;;;;4.25;2.00;;;;;;;2.73;100.00;97311.38;5157272;27;20047;-61
2023/03/06 09:50:30;;;;;;;8.98;2.95;;;;;;;2.93;100.00;97300.50;5157607;27;20054;-65
2023/03/06 09:53:31;;;;;;;6.88;2.72;;;;;;;3.02;100.00;97292.94;5157261;27;20142;-61
2023/03/06 09:56:01;;;;;;;8.85;3.45;;;;;;;2.75;100.00;97295.53;5156992;27;20043;-65
2023/03/06 09:58:30;;;;;;;11.27;2.22;;;;;;;2.75;100.00;97297.47;5157377;27;20111;-64
2023/03/06 10:01:00;;;;;;;2.50;1.80;;;;;;;2.71;100.00;97289.28;5158348;27;20061;-63
2023/03/06 10:03:30;;;;;;;4.68;1.80;;;;;;;2.80;100.00;97292.56;5161039;27;20133;-70
2023/03/06 10:06:02;;;;;;;6.30;2.40;;;;;;;2.74;100.00;97320.28;5160464;27;20064;-57
2023/03/06 10:08:35;;;;;;;6.43;2.17;;;;;;;2.76;100.00;97320.69;5160738;27;20046;-68
2023/03/06 10:11:06;;;;;;;4.90;2.17;;;;;;;2.73;100.00;97333.03;5160699;27;20203;-62
2023/03/06 10:13:39;;;;;;;1.73;1.10;;;;;;;2.42;100.00;97347.47;5160402;27;20689;-62
2023/03/06 10:16:25;;;;;;;7.70;1.95;;;;;;;2.28;100.00;97339.84;5160779;27;20047;-63
2023/03/06 10:18:52;;;;;;;4.32;1.80;;;;;;;2.49;100.00;97338.72;5160417;27;20370;-63
2023/03/06 10:21:39;;;;;;;7.75;1.95;;;;;;;2.73;100.00;97341.16;5160530;27;20106;-64
2023/03/06 10:24:18;;;;;;;5.65;1.85;;;;;;;2.46;100.00;97337.50;5160058;27;20119;-69
2023/03/06 10:26:51;;;;;;;3.78;1.73;;;;;;;2.44;100.00;97336.31;5159784;27;20054;-67
2023/03/06 10:29:32;;;;;;;5.03;1.42;;;;;;;2.14;100.00;97350.38;5160471;27;20139;-67
2023/03/06 10:32:09;;;;;;;9.88;1.65;;;;;;;2.74;100.00;97345.41;5160206;27;20138;-65
2023/03/06 10:34:38;;;;;;;5.22;1.90;;;;;;;2.83;100.00;97348.69;5160305;27;20069;-69
2023/03/06 10:37:20;;;;;;;2.97;1.73;;;;;;;3.09;100.00;97349.13;5160319;27;20043;-69
2023/03/06 10:39:49;;;;;;;10.35;2.10;;;;;;;3.59;100.00;97344.56;5160544;27;20050;-64
2023/03/06 10:42:16;;;;;;;5.30;1.35;;;;;;;3.43;100.00;97367.16;5160009;27;20137;-65
2023/03/06 10:44:42;;;;;;;3.80;1.50;;;;;;;2.90;100.00;97366.97;5160116;27;20072;-66
2023/03/06 10:47:26;;;;;;;5.72;1.38;;;;;;;3.19;100.00;97370.19;5160300;27;20050;-67
2023/03/06 10:49:59;;;;;;;5.93;2.22;;;;;;;2.57;100.00;97356.66;5158730;27;20053;-66
2023/03/06 10:52:29;;;;;;;21.65;2.72;;;;;;;2.74;100.00;97360.88;5160303;27;20110;-71
2023/03/06 10:55:21;;;;;;;3.13;1.95;;;;;;;2.91;100.00;97362.34;5159855;27;20138;-65
2023/03/06 10:57:47;;;;;;;3.00;1.73;;;;;;;2.72;100.00;97373.97;5160091;27;20046;-64
2023/03/06 11:00:30;;;;;;;2.42;1.50;;;;;;;2.94;100.00;97372.47;5159860;27;20100;-64
2023/03/06 11:03:17;;;;;;;3.40;1.88;;;;;;;2.65;100.00;97354.88;5159683;27;20046;-65
2023/03/06 11:05:57;;;;;;;3.33;1.83;;;;;;;2.63;100.00;97355.22;5159865;27;20046;-64
2023/03/06 11:08:24;;;;;;;10.85;1.73;;;;;;;2.74;100.00;97337.28;5159534;27;20137;-64
2023/03/06 11:10:59;;;;;;;4.85;2.00;;;;;;;2.63;100.00;97351.72;5159872;27;20095;-64
2023/03/06 11:13:27;;;;;;;7.82;2.30;;;;;;;3.25;100.00;97339.75;5159306;27;20051;-64
2023/03/06 11:15:57;;;;;;;6.47;3.13;;;;;;;4.40;100.00;97344.19;5159762;27;20065;-63
2023/03/06 11:18:29;;;;;;;3.95;2.65;;;;;;;4.36;100.00;97362.31;5159482;27;20091;-67
2023/03/06 11:20:58;;;;;;;4.38;2.25;;;;;;;3.60;100.00;97362.38;5159177;27;20137;-62
2023/03/06 11:23:35;;;;;;;4.07;1.60;;;;;;;4.05;100.00;97366.94;5159494;27;20100;-59
2023/03/06 11:26:19;;;;;;;6.38;2.53;;;;;;;4.00;100.00;97372.69;5159413;27;20051;-62
2023/03/06 11:28:49;;;;;;;2.50;1.83;;;;;;;4.43;100.00;97367.84;5159515;27;20062;-65
2023/03/06 11:31:19;;;;;;;4.13;2.20;;;;;;;3.77;100.00;97364.59;5159224;27;20061;-62
2023/03/06 11:33:52;;;;;;;5.13;2.38;;;;;;;3.63;100.00;97359.75;5159661;27;20404;-66